Time;durP1;ratioP1;P1;durP2;ratioP2;P2;SDS_P1;SDS_P2;PMS_P1;PMS_P2;Temp;Humidity;BMP_temperature;BMP_pressure;BME280_temperature;BME280_humidity;BME280_pressure;Samples;Min_cycle;Max_cycle;Signal;HPM_P1;HPM_P2
2021/08/28 00:01:43;;;;;;;10.53;8.03;;;;;;;15.46;75.13;99228.27;1727514;82;21709;-64
2021/08/28 00:04:09;;;;;;;10.48;7.20;;;;;;;15.45;75.24;99224.70;1728670;82;21031;-63
2021/08/28 00:06:36;;;;;;;12.15;7.50;;;;;;;15.49;75.15;99226.84;1728552;82;21034;-64
2021/08/28 00:09:02;;;;;;;8.45;6.70;;;;;;;15.53;75.04;99225.91;1688628;84;21089;-63
2021/08/28 00:11:28;;;;;;;11.88;7.20;;;;;;;15.57;74.88;99230.20;1742675;82;20967;-63
2021/08/28 00:13:55;;;;;;;;;;;;;;;15.60;74.83;99229.56;1749901;82;21062;-63
2021/08/28 00:16:21;;;;;;;11.00;7.62;;;;;;;15.61;74.86;99227.06;1747795;82;20129;-64
2021/08/28 00:18:47;;;;;;;12.05;7.25;;;;;;;15.53;75.19;99220.98;1705220;84;21155;-63
2021/08/28 00:21:14;;;;;;;;;;;;;;;15.55;75.28;99221.48;1749323;82;21047;-63
2021/08/28 00:23:40;;;;;;;9.33;7.30;;;;;;;15.58;75.21;99229.89;1737422;82;20117;-63
2021/08/28 00:26:07;;;;;;;9.83;7.55;;;;;;;15.57;75.31;99226.08;1734074;82;20972;-63
2021/08/28 00:28:33;;;;;;;10.55;7.35;;;;;;;15.60;75.32;99218.02;1742066;82;21046;-63
2021/08/28 00:30:59;;;;;;;10.00;7.40;;;;;;;15.61;75.46;99214.16;1671516;85;21486;-64
2021/08/28 00:33:26;;;;;;;8.98;7.45;;;;;;;15.57;75.58;99206.31;1703095;82;21023;-63
2021/08/28 00:35:52;;;;;;;9.85;6.80;;;;;;;15.57;75.62;99200.02;1751464;82;21003;-63
2021/08/28 00:38:19;;;;;;;10.23;7.15;;;;;;;15.60;75.57;99189.22;1731624;82;21030;-63
2021/08/28 00:40:45;;;;;;;;;;;;;;;15.60;75.53;99185.66;1739277;82;21106;-63
2021/08/28 00:43:11;;;;;;;9.08;7.55;;;;;;;15.61;75.63;99183.17;1729466;82;20179;-64
2021/08/28 00:45:40;;;;;;;11.55;7.92;;;;;;;15.57;75.92;99179.44;1683996;85;21645;-64
2021/08/28 00:48:12;;;;;;;11.53;8.10;;;;;;;15.53;76.07;99184.76;1740988;82;20983;-64
2021/08/28 00:50:42;;;;;;;11.95;7.53;;;;;;;15.47;76.36;99189.30;1709587;82;21028;-64
2021/08/28 00:53:10;;;;;;;12.53;8.10;;;;;;;15.43;76.52;99195.42;1736524;82;20944;-63
2021/08/28 00:55:39;;;;;;;12.25;8.15;;;;;;;15.43;76.53;99199.54;1750866;82;21078;-63
2021/08/28 00:58:05;;;;;;;12.37;7.72;;;;;;;15.42;76.66;99191.06;1694007;84;21461;-65
2021/08/28 01:00:54;;;;;;;9.13;7.50;;;;;;;15.43;76.65;99191.31;1733624;82;21059;-64
2021/08/28 01:03:26;;;;;;;9.95;7.60;;;;;;;15.44;76.73;99179.78;1708657;84;21034;-65
2021/08/28 01:06:22;;;;;;;9.93;7.47;;;;;;;15.44;76.74;99192.91;1731782;82;20967;-66
2021/08/28 01:09:05;;;;;;;11.80;7.92;;;;;;;15.42;76.77;99203.40;1685494;84;21588;-64
2021/08/28 01:11:47;;;;;;;10.45;7.47;;;;;;;15.35;76.90;99194.82;1722041;82;20995;-65
2021/08/28 01:14:15;;;;;;;10.60;7.08;;;;;;;15.33;76.90;99194.89;1724998;82;21058;-65
2021/08/28 01:16:49;;;;;;;11.10;7.37;;;;;;;15.34;76.72;99201.42;1743284;82;21526;-65
2021/08/28 01:19:39;;;;;;;8.38;6.53;;;;;;;15.38;76.49;99192.81;1723279;83;21019;-65
2021/08/28 01:22:13;;;;;;;7.75;6.42;;;;;;;15.41;76.29;99191.36;1741206;82;21561;-65
2021/08/28 01:24:46;;;;;;;7.92;6.95;;;;;;;15.39;76.17;99188.14;1729921;82;21102;-65
2021/08/28 01:27:26;;;;;;;8.90;7.45;;;;;;;15.39;76.21;99193.63;1733802;82;21506;-65
2021/08/28 01:29:52;;;;;;;9.33;7.28;;;;;;;15.36;76.33;99193.70;1735050;82;21066;-65
2021/08/28 01:32:20;;;;;;;10.70;6.97;;;;;;;15.37;76.37;99200.78;1723523;82;21014;-65
2021/08/28 01:34:48;;;;;;;10.65;6.60;;;;;;;15.39;76.32;99204.03;1738494;82;21095;-65
2021/08/28 01:37:16;;;;;;;11.12;6.75;;;;;;;15.43;76.30;99200.10;1697039;84;21085;-64
2021/08/28 01:39:46;;;;;;;8.33;6.28;;;;;;;15.44;76.31;99204.47;1752282;82;21051;-64
2021/08/28 01:42:14;;;;;;;10.53;6.83;;;;;;;15.48;76.32;99204.05;1743957;82;21007;-64
2021/08/28 01:44:46;;;;;;;8.68;7.28;;;;;;;15.51;76.32;99201.30;1694050;83;21027;-64
2021/08/28 01:47:14;;;;;;;9.58;7.37;;;;;;;15.52;76.35;99186.46;1673495;84;20978;-64
2021/08/28 01:49:43;;;;;;;10.53;7.40;;;;;;;15.51;76.45;99188.39;1700198;84;21039;-64
2021/08/28 01:52:09;;;;;;;9.55;7.12;;;;;;;15.53;76.43;99186.13;1698942;84;20991;-64
2021/08/28 01:54:37;;;;;;;12.13;6.80;;;;;;;15.56;76.34;99171.77;1690123;84;21470;-64
2021/08/28 01:57:04;;;;;;;9.25;6.90;;;;;;;15.58;76.25;99174.21;1696513;84;21034;-65
2021/08/28 01:59:31;;;;;;;9.45;6.80;;;;;;;15.59;76.20;99164.86;1693582;84;21102;-64
2021/08/28 02:01:59;;;;;;;10.60;7.25;;;;;;;15.60;76.21;99155.48;1673561;84;21530;-64
2021/08/28 02:04:27;;;;;;;10.43;7.50;;;;;;;15.57;76.24;99150.08;1642154;84;21074;-64
2021/08/28 02:07:04;;;;;;;9.78;7.67;;;;;;;15.57;76.17;99169.28;1725796;82;21027;-64
2021/08/28 02:09:58;;;;;;;9.95;7.25;;;;;;;15.59;76.04;99177.20;1726463;82;21636;-64
2021/08/28 02:12:34;;;;;;;12.00;7.30;;;;;;;15.60;76.00;99178.80;1724809;82;20988;-65
2021/08/28 02:15:26;;;;;;;10.03;7.10;;;;;;;15.59;76.01;99168.98;1710047;82;21060;-64
2021/08/28 02:18:11;;;;;;;8.73;6.42;;;;;;;15.57;76.04;99158.31;1698960;82;21490;-65
2021/08/28 02:20:41;;;;;;;9.05;6.83;;;;;;;15.52;76.09;99150.22;1717484;82;21103;-65
2021/08/28 02:23:12;;;;;;;9.03;6.53;;;;;;;15.54;76.04;99149.35;1714003;82;21023;-64
2021/08/28 02:26:19;;;;;;;10.00;6.47;;;;;;;15.59;75.89;99147.03;1735796;82;20969;-64
2021/08/28 02:28:52;;;;;;;10.45;6.58;;;;;;;15.61;75.61;99148.32;1657145;86;21054;-64
2021/08/28 02:31:23;;;;;;;9.40;6.55;;;;;;;15.65;75.44;99142.45;1729243;82;20952;-64
2021/08/28 02:33:51;;;;;;;8.60;6.55;;;;;;;15.67;75.37;99144.30;1738275;82;21486;-65
2021/08/28 02:36:19;;;;;;;11.15;6.87;;;;;;;15.68;75.35;99142.36;1730352;82;21447;-64
2021/08/28 02:38:47;;;;;;;9.60;6.30;;;;;;;15.73;75.32;99138.11;1718605;82;22477;-65
2021/08/28 02:41:14;;;;;;;8.03;6.30;;;;;;;15.78;75.11;99131.89;1649373;86;21062;-65
2021/08/28 02:43:42;;;;;;;8.20;6.03;;;;;;;15.83;74.99;99130.94;1709561;82;21031;-66
2021/08/28 02:46:09;;;;;;;7.53;6.08;;;;;;;15.87;74.76;99141.52;1660920;86;21082;-65
2021/08/28 02:48:37;;;;;;;;;;;;;;;15.87;74.67;99150.54;1723880;82;21075;-65
2021/08/28 02:51:06;;;;;;;8.20;6.30;;;;;;;15.85;74.67;99147.32;1737196;82;20111;-65
2021/08/28 02:53:35;;;;;;;9.10;6.08;;;;;;;15.77;74.84;99150.84;1731949;82;21007;-65
2021/08/28 02:56:01;;;;;;;;;;;;;;;15.79;74.79;99146.42;1680433;82;20956;-65
2021/08/28 02:58:29;;;;;;;7.62;5.72;;;;;;;15.84;74.61;99154.48;1738635;82;20095;-65
2021/08/28 03:00:56;;;;;;;7.47;5.85;;;;;;;15.81;74.64;99160.06;1683891;84;20940;-65
2021/08/28 03:03:22;;;;;;;;;;;;;;;15.82;74.60;99163.62;1642648;86;21533;-65
2021/08/28 03:05:50;;;;;;;7.45;5.85;;;;;;;15.82;74.62;99157.57;1691752;84;20128;-64
2021/08/28 03:08:17;;;;;;;8.45;5.78;;;;;;;15.74;74.93;99156.16;1715734;82;21545;-65
2021/08/28 03:10:50;;;;;;;8.68;5.58;;;;;;;15.77;74.87;99148.66;1724429;82;21617;-65
2021/08/28 03:13:20;;;;;;;7.62;5.25;;;;;;;15.86;74.69;99154.99;1637053;87;21063;-65
2021/08/28 03:15:48;;;;;;;7.80;5.47;;;;;;;15.91;74.50;99147.40;1718670;82;21059;-65
2021/08/28 03:18:18;;;;;;;9.55;6.22;;;;;;;15.95;74.37;99147.56;1723303;82;20984;-65
2021/08/28 03:20:48;;;;;;;10.80;5.85;;;;;;;15.95;74.39;99151.69;1663678;86;21063;-65
2021/08/28 03:23:17;;;;;;;8.25;5.72;;;;;;;15.99;74.33;99159.53;1694111;84;20972;-65
2021/08/28 03:25:44;;;;;;;7.92;6.10;;;;;;;16.04;74.15;99162.13;1713997;82;21095;-65
2021/08/28 03:28:12;;;;;;;8.10;5.53;;;;;;;16.08;74.11;99154.87;1736460;82;21016;-65
2021/08/28 03:30:41;;;;;;;8.03;6.03;;;;;;;16.10;74.08;99158.65;1737124;82;21032;-65
2021/08/28 03:33:08;;;;;;;8.03;5.78;;;;;;;16.08;74.14;99153.50;1723262;82;21397;-65
2021/08/28 03:35:35;;;;;;;10.25;5.97;;;;;;;16.09;74.11;99158.40;1709532;82;21563;-65
2021/08/28 03:38:03;;;;;;;7.20;5.58;;;;;;;16.11;73.96;99162.45;1720954;82;21040;-64
2021/08/28 03:40:29;;;;;;;8.08;5.45;;;;;;;16.15;73.90;99174.42;1663574;86;21055;-65
2021/08/28 03:42:56;;;;;;;;;;;;;;;16.19;73.83;99164.97;1724272;82;21043;-65
2021/08/28 03:45:28;;;;;;;;;;;;;;;16.19;73.90;99164.38;1749372;82;20436;-65
2021/08/28 03:47:55;;;;;;;10.03;5.80;;;;;;;16.07;74.19;99179.89;1719086;82;20169;-65
2021/08/28 03:50:22;;;;;;;9.18;5.85;;;;;;;15.96;74.67;99189.55;1712868;82;21343;-65
2021/08/28 03:52:50;;;;;;;9.65;5.67;;;;;;;15.99;74.86;99169.13;1749418;82;20971;-65
2021/08/28 03:55:17;;;;;;;;;;;;;;;16.03;74.72;99166.55;1751947;82;21022;-65
2021/08/28 03:57:43;;;;;;;6.60;4.95;;;;;;;16.09;74.66;99173.50;1724748;82;20130;-65
2021/08/28 04:00:11;;;;;;;8.28;5.47;;;;;;;16.08;74.78;99160.36;1746021;82;21704;-65
2021/08/28 04:02:45;;;;;;;7.60;5.30;;;;;;;16.12;74.72;99163.27;1752030;82;20959;-65
2021/08/28 04:05:13;;;;;;;9.63;5.47;;;;;;;16.12;74.75;99183.27;1741633;82;21068;-65
2021/08/28 04:07:40;;;;;;;6.85;5.00;;;;;;;16.10;74.82;99192.97;1743638;82;21050;-65
2021/08/28 04:10:08;;;;;;;7.22;4.95;;;;;;;16.08;74.86;99191.94;1722832;82;21019;-65
2021/08/28 04:12:35;;;;;;;8.83;4.90;;;;;;;16.13;74.71;99178.59;1735414;82;21036;-65
2021/08/28 04:15:04;;;;;;;7.05;4.70;;;;;;;16.16;74.73;99176.02;1733343;82;21027;-65
2021/08/28 04:17:34;;;;;;;8.20;5.62;;;;;;;16.23;74.68;99186.52;1748349;82;21466;-65
2021/08/28 04:20:04;;;;;;;6.55;5.37;;;;;;;16.24;74.66;99193.63;1712344;82;21051;-65
2021/08/28 04:22:30;;;;;;;7.12;5.10;;;;;;;16.20;74.76;99200.33;1741127;82;21026;-65
2021/08/28 04:25:10;;;;;;;7.55;5.25;;;;;;;16.21;74.76;99195.66;1727863;82;21652;-65
2021/08/28 04:27:52;;;;;;;5.83;5.03;;;;;;;16.24;74.67;99208.17;1694225;84;21026;-65
2021/08/28 04:30:20;;;;;;;7.12;5.00;;;;;;;16.26;74.66;99200.41;1746242;82;21023;-65
2021/08/28 04:32:47;;;;;;;;;;;;;;;16.28;74.61;99191.86;1670486;85;21048;-65
2021/08/28 04:35:14;;;;;;;7.20;4.83;;;;;;;16.27;74.73;99193.80;1691656;84;20156;-65
2021/08/28 04:37:41;;;;;;;6.87;5.08;;;;;;;16.14;75.06;99203.56;1705953;84;21527;-65
2021/08/28 04:40:09;;;;;;;;;;;;;;;16.14;75.20;99193.95;1755394;82;21044;-66
2021/08/28 04:42:35;;;;;;;7.83;4.95;;;;;;;16.15;75.23;99181.28;1714555;83;20140;-65
2021/08/28 04:45:05;;;;;;;6.95;4.62;;;;;;;16.13;75.50;99184.09;1740582;81;21121;-65
2021/08/28 04:47:33;;;;;;;7.12;5.00;;;;;;;16.13;75.66;99201.94;1752631;82;21541;-65
2021/08/28 04:50:00;;;;;;;7.87;5.80;;;;;;;16.13;75.85;99183.53;1727872;82;21059;-65
2021/08/28 04:52:28;;;;;;;8.65;5.75;;;;;;;16.15;76.03;99174.98;1749893;82;21565;-66
2021/08/28 04:54:55;;;;;;;8.33;5.33;;;;;;;16.15;76.17;99170.86;1751023;82;21071;-66
2021/08/28 04:57:21;;;;;;;7.95;5.25;;;;;;;16.10;76.36;99182.80;1748600;82;21410;-66
2021/08/28 04:59:49;;;;;;;7.65;4.75;;;;;;;16.06;76.56;99185.94;1711963;84;21145;-66
2021/08/28 05:02:20;;;;;;;8.73;4.70;;;;;;;16.07;76.68;99189.50;1738048;82;21444;-66
2021/08/28 05:04:55;;;;;;;6.72;4.78;;;;;;;16.08;76.76;99193.31;1735891;82;21011;-66
2021/08/28 05:07:21;;;;;;;6.47;4.65;;;;;;;16.06;76.81;99196.92;1736577;82;20996;-66
2021/08/28 05:09:52;;;;;;;10.40;4.47;;;;;;;16.07;76.99;99193.05;1738359;81;21585;-66
2021/08/28 05:12:19;;;;;;;7.75;4.58;;;;;;;16.12;77.10;99196.22;1740888;82;20967;-67
2021/08/28 05:14:48;;;;;;;6.00;4.83;;;;;;;16.14;77.08;99198.88;1739851;82;21086;-67
2021/08/28 05:17:14;;;;;;;6.70;4.85;;;;;;;16.19;77.17;99202.05;1677900;85;20988;-67
2021/08/28 05:19:42;;;;;;;8.33;4.72;;;;;;;16.24;77.20;99197.75;1735418;82;21074;-67
2021/08/28 05:22:28;;;;;;;8.70;5.30;;;;;;;16.31;77.26;99200.27;1733754;82;20999;-66
2021/08/28 05:28:06;;;;;;;7.60;4.78;;;;;;;16.43;77.54;99204.56;1735754;81;21559;-76
2021/08/28 05:30:33;;;;;;;6.75;5.00;;;;;;;16.53;77.29;99199.30;1736146;81;21509;-76
2021/08/28 05:33:00;;;;;;;7.75;4.65;;;;;;;16.61;77.15;99203.22;1728446;81;21422;-77
2021/08/28 05:35:27;;;;;;;6.78;4.95;;;;;;;16.67;76.88;99190.36;1728260;81;21411;-77
2021/08/28 05:38:06;;;;;;;7.30;4.80;;;;;;;16.66;76.71;99203.03;1726269;81;20977;-73
2021/08/28 05:40:38;;;;;;;6.40;4.67;;;;;;;16.64;76.84;99195.70;1727057;82;21054;-75
2021/08/28 05:43:05;;;;;;;6.60;4.10;;;;;;;16.68;76.92;99202.16;1728283;81;21600;-75
2021/08/28 05:45:45;;;;;;;5.75;4.25;;;;;;;16.78;76.83;99205.39;1649321;81;21482;-74
2021/08/28 05:48:12;;;;;;;6.62;4.80;;;;;;;16.85;76.64;99209.02;1728337;81;20975;-75
2021/08/28 05:50:39;;;;;;;6.37;4.58;;;;;;;16.88;76.51;99205.05;1728923;82;20972;-75
2021/08/28 05:53:06;;;;;;;6.37;4.90;;;;;;;16.87;76.46;99214.41;1725359;81;21009;-74
2021/08/28 05:55:33;;;;;;;6.50;4.55;;;;;;;16.89;76.22;99203.92;1732727;81;21492;-74
2021/08/28 05:57:59;;;;;;;6.30;3.95;;;;;;;16.96;76.03;99205.35;1754852;81;21012;-73
2021/08/28 06:00:25;;;;;;;;;;;;;;;17.06;76.26;99209.13;1723383;81;21513;-77
2021/08/28 06:02:54;;;;;;;6.95;4.37;;;;;;;17.18;76.23;99212.80;1722645;82;20417;-77
2021/08/28 06:05:22;;;;;;;6.70;4.47;;;;;;;17.22;76.55;99213.77;1732000;82;21070;-76
2021/08/28 06:08:07;;;;;;;8.20;4.75;;;;;;;17.36;76.55;99217.69;1725717;81;21603;-77
2021/08/28 06:10:37;;;;;;;8.33;4.65;;;;;;;17.78;77.37;99219.48;1670033;82;21011;-77
2021/08/28 06:13:08;;;;;;;7.50;5.25;;;;;;;18.37;76.68;99217.52;1697288;81;20989;-77
2021/08/28 06:15:36;;;;;;;7.35;4.75;;;;;;;18.98;75.46;99214.27;1716338;82;21028;-76
2021/08/28 06:18:10;;;;;;;7.10;4.78;;;;;;;19.55;75.10;99208.80;1722294;81;21013;-76
2021/08/28 06:20:37;;;;;;;6.83;4.95;;;;;;;20.08;72.75;99208.58;1725679;82;21003;-75
2021/08/28 06:23:03;;;;;;;6.78;4.62;;;;;;;20.35;70.58;99202.33;1706791;81;21070;-77
2021/08/28 06:25:34;;;;;;;6.42;4.95;;;;;;;20.35;68.61;99209.81;1718424;81;21008;-78
2021/08/28 06:28:00;;;;;;;6.83;4.75;;;;;;;20.22;67.83;99217.31;1699719;83;21542;-77
2021/08/28 06:30:29;;;;;;;6.30;4.75;;;;;;;20.03;67.84;99215.70;1732604;81;20978;-78
2021/08/28 06:32:56;;;;;;;5.58;4.00;;;;;;;19.85;67.43;99214.33;1727070;81;21051;-79
2021/08/28 06:35:22;;;;;;;7.92;4.70;;;;;;;19.73;67.82;99218.48;1707538;82;21055;-76
2021/08/28 06:37:49;;;;;;;5.17;4.20;;;;;;;19.60;67.48;99227.89;1732523;81;21052;-76
2021/08/28 06:40:34;;;;;;;6.03;3.65;;;;;;;19.36;67.65;99236.34;1725515;82;20960;-76
2021/08/28 06:43:01;;;;;;;5.60;3.05;;;;;;;19.14;68.11;99238.11;1726338;82;21136;-81
2021/08/28 06:45:46;;;;;;;5.15;3.05;;;;;;;19.07;68.33;99237.86;1733847;81;21043;-78
2021/08/28 06:48:14;;;;;;;4.47;3.05;;;;;;;19.02;68.89;99243.61;1630272;82;21695;-79
2021/08/28 06:51:00;;;;;;;3.33;2.75;;;;;;;18.98;68.53;99250.13;1724386;81;21160;-80
2021/08/28 06:53:45;;;;;;;4.83;2.95;;;;;;;18.82;68.71;99259.59;1735212;81;20986;-77
2021/08/28 06:56:18;;;;;;;4.15;3.00;;;;;;;18.82;68.93;99259.02;1734286;82;21092;-79
2021/08/28 07:00:08;;;;;;;4.35;2.80;;;;;;;18.99;68.74;99264.95;1797755;79;22923;-66
2021/08/28 07:02:53;;;;;;;3.42;2.40;;;;;;;18.84;68.52;99269.73;1722935;80;21043;-65
2021/08/28 07:05:20;;;;;;;4.28;2.60;;;;;;;18.85;69.01;99272.69;1740979;82;20988;-66
2021/08/28 07:07:49;;;;;;;3.75;2.50;;;;;;;18.98;68.65;99276.33;1724997;80;21027;-65
2021/08/28 07:10:16;;;;;;;4.55;2.62;;;;;;;19.15;68.19;99276.98;1730656;80;21466;-66
2021/08/28 07:12:43;;;;;;;4.37;2.80;;;;;;;19.28;67.71;99281.39;1745161;80;21532;-65
2021/08/28 07:15:10;;;;;;;3.77;2.35;;;;;;;19.29;66.93;99280.25;1752905;80;20951;-65
2021/08/28 07:17:42;;;;;;;3.52;2.33;;;;;;;19.25;67.04;99276.55;1762129;80;21037;-64
2021/08/28 07:20:10;;;;;;;3.40;2.45;;;;;;;19.25;66.92;99277.13;1740795;82;21461;-65
2021/08/28 07:22:37;;;;;;;4.33;2.62;;;;;;;19.32;67.50;99283.70;1722684;83;21030;-65
2021/08/28 07:25:04;;;;;;;;;;;;;;;19.42;67.14;99284.44;1666043;85;21042;-65
2021/08/28 07:27:31;;;;;;;4.40;2.22;;;;;;;19.45;66.94;99281.80;1703675;83;20135;-65
2021/08/28 07:30:10;;;;;;;3.83;1.82;;;;;;;19.39;67.22;99283.95;1692880;84;21144;-65
2021/08/28 07:32:37;;;;;;;2.00;1.70;;;;;;;19.39;66.26;99290.86;1711878;83;21106;-64
2021/08/28 07:35:05;;;;;;;2.05;1.45;;;;;;;19.38;65.81;99293.94;1691266;84;21080;-65
2021/08/28 07:37:33;;;;;;;4.42;2.15;;;;;;;19.39;65.63;99295.56;1698955;84;21066;-65
2021/08/28 07:40:00;;;;;;;2.85;2.00;;;;;;;19.32;65.83;99297.50;1650000;84;21082;-64
2021/08/28 07:42:27;;;;;;;2.75;2.10;;;;;;;19.20;65.70;99315.37;1674406;84;21613;-64
2021/08/28 07:44:53;;;;;;;2.67;1.98;;;;;;;19.03;65.71;99312.78;1695734;84;21058;-64
2021/08/28 07:47:20;;;;;;;2.62;1.62;;;;;;;18.96;66.12;99318.03;1706701;84;21071;-63
2021/08/28 07:49:48;;;;;;;3.58;1.90;;;;;;;19.01;66.29;99325.30;1703981;84;21080;-63
2021/08/28 07:52:18;;;;;;;2.27;1.95;;;;;;;18.96;66.66;99318.03;1684148;84;21094;-63
2021/08/28 07:54:45;;;;;;;3.75;1.65;;;;;;;18.97;67.15;99311.95;1683976;84;21074;-65
2021/08/28 07:57:13;;;;;;;2.77;1.85;;;;;;;19.06;66.39;99319.00;1706854;84;21082;-64
2021/08/28 07:59:40;;;;;;;2.25;1.60;;;;;;;19.11;65.17;99316.61;1703859;83;21531;-64
2021/08/28 08:02:06;;;;;;;2.98;1.50;;;;;;;19.00;64.88;99317.59;1695987;84;21033;-65
2021/08/28 08:04:33;;;;;;;2.42;1.60;;;;;;;18.84;65.23;99320.74;1725627;83;21517;-64
2021/08/28 08:07:01;;;;;;;2.47;1.47;;;;;;;18.68;65.32;99329.36;1689373;84;21082;-64
2021/08/28 08:09:46;;;;;;;2.20;1.42;;;;;;;18.58;65.76;99328.38;1677004;84;21055;-64
2021/08/28 08:12:31;;;;;;;2.75;1.62;;;;;;;18.53;65.87;99327.20;1678791;84;21078;-63
2021/08/28 08:15:17;;;;;;;9.63;4.70;;;;;;;18.47;66.39;99338.13;1696295;84;20977;-64
2021/08/28 08:18:00;;;;;;;4.08;2.27;;;;;;;18.36;66.53;99341.28;1648126;86;21153;-65
2021/08/28 08:20:28;;;;;;;3.25;1.30;;;;;;;18.32;66.67;99349.16;1673443;84;20969;-64
2021/08/28 08:22:59;;;;;;;1.80;1.07;;;;;;;18.32;66.85;99349.97;1642174;84;21547;-64
2021/08/28 08:25:27;;;;;;;2.02;1.10;;;;;;;18.36;66.67;99356.44;1704650;83;21486;-66
2021/08/28 08:27:55;;;;;;;2.60;1.10;;;;;;;18.39;66.56;99341.98;1693460;83;21041;-65
2021/08/28 08:30:24;;;;;;;3.70;2.00;;;;;;;18.38;66.03;99351.41;1695107;83;21048;-64
2021/08/28 08:32:53;;;;;;;2.45;1.55;;;;;;;18.37;65.81;99348.41;1694825;84;21116;-66
2021/08/28 08:35:21;;;;;;;1.95;1.12;;;;;;;18.45;65.74;99352.83;1693751;83;21697;-66
2021/08/28 08:37:49;;;;;;;1.62;1.10;;;;;;;18.42;65.75;99358.45;1718218;83;21124;-64
2021/08/28 08:40:15;;;;;;;2.98;1.17;;;;;;;18.39;65.67;99363.22;1702051;83;21867;-64
2021/08/28 08:42:47;;;;;;;1.35;1.02;;;;;;;18.35;65.64;99365.05;1695537;84;21634;-64
2021/08/28 08:45:14;;;;;;;1.55;1.00;;;;;;;18.34;65.69;99371.69;1719679;83;21071;-65
2021/08/28 08:47:40;;;;;;;;;;;;;;;18.36;65.83;99370.78;1700374;83;21100;-64
2021/08/28 08:50:08;;;;;;;2.22;1.07;;;;;;;18.39;66.00;99371.48;1719739;83;20427;-64
2021/08/28 08:52:44;;;;;;;2.37;1.20;;;;;;;18.24;66.40;99377.02;1722986;83;21713;-63
2021/08/28 08:55:16;;;;;;;1.70;1.00;;;;;;;18.18;66.47;99376.94;1716024;83;21535;-64
2021/08/28 08:57:43;;;;;;;1.47;1.10;;;;;;;18.16;66.70;99390.24;1723942;83;21685;-64
2021/08/28 09:00:11;;;;;;;2.02;1.00;;;;;;;18.20;66.41;99388.45;1723456;83;21115;-64
2021/08/28 09:02:39;;;;;;;1.80;1.02;;;;;;;18.14;66.33;99377.95;1714806;83;21629;-64
2021/08/28 09:05:10;;;;;;;3.45;0.90;;;;;;;18.08;66.36;99382.81;1686784;83;21128;-64
2021/08/28 09:07:37;;;;;;;1.65;1.20;;;;;;;18.12;66.15;99382.39;1695637;84;21088;-63
2021/08/28 09:10:05;;;;;;;1.30;0.88;;;;;;;18.21;65.91;99383.16;1699627;83;21549;-64
2021/08/28 09:12:38;;;;;;;2.40;1.20;;;;;;;18.33;65.05;99383.84;1671771;84;21124;-64
2021/08/28 09:15:15;;;;;;;1.17;0.90;;;;;;;18.35;64.66;99392.61;1701413;83;20997;-64
2021/08/28 09:17:39;;;;;;;1.85;1.20;;;;;;;18.41;64.69;99385.76;1694821;83;21567;-63
2021/08/28 09:20:24;;;;;;;2.15;1.00;;;;;;;18.49;64.25;99390.42;1694225;83;21041;-63
2021/08/28 09:23:10;;;;;;;2.20;1.20;;;;;;;18.58;64.16;99397.29;1722458;83;21088;-65
2021/08/28 09:25:39;;;;;;;3.02;1.90;;;;;;;18.64;64.08;99397.33;1724728;83;21041;-65
2021/08/28 09:28:08;;;;;;;346.40;214.97;;;;;;;18.77;63.31;99401.81;1723922;83;21052;-65
2021/08/28 09:30:38;;;;;;;57.83;36.88;;;;;;;18.76;63.08;99397.43;1702691;83;21036;-66
2021/08/28 09:33:08;;;;;;;14.75;8.80;;;;;;;18.78;63.94;99402.03;1718495;83;21531;-65
2021/08/28 09:35:40;;;;;;;14.10;10.75;;;;;;;18.82;64.12;99401.59;1706323;83;21001;-66
2021/08/28 09:38:12;;;;;;;4.45;2.42;;;;;;;18.85;63.89;99402.30;1702531;83;22052;-67
2021/08/28 09:40:42;;;;;;;3.40;1.72;;;;;;;18.87;63.72;99402.80;1710214;83;21009;-68
2021/08/28 09:43:18;;;;;;;2.67;1.90;;;;;;;18.99;63.37;99407.00;1699109;83;21081;-69
2021/08/28 09:45:46;;;;;;;2.40;1.45;;;;;;;19.20;62.74;99409.20;1701458;83;21100;-68
2021/08/28 09:48:15;;;;;;;2.17;1.60;;;;;;;19.29;62.03;99414.09;1707286;83;21426;-71
2021/08/28 09:50:45;;;;;;;1.90;1.10;;;;;;;19.25;62.04;99404.87;1706194;83;21080;-70
2021/08/28 09:53:21;;;;;;;2.85;1.77;;;;;;;19.27;62.17;99408.69;1709175;83;21033;-70
2021/08/28 09:55:56;;;;;;;1.65;1.15;;;;;;;19.36;62.69;99406.08;1708849;83;21025;-70
2021/08/28 09:58:24;;;;;;;2.97;2.03;;;;;;;19.55;62.40;99413.91;1710495;83;20985;-68
2021/08/28 10:00:51;;;;;;;3.05;1.20;;;;;;;19.61;60.84;99410.36;1710321;83;21766;-68
2021/08/28 10:03:21;;;;;;;2.12;1.15;;;;;;;19.69;61.69;99406.14;1708795;83;21080;-68
2021/08/28 10:05:48;;;;;;;2.02;1.00;;;;;;;19.85;60.74;99408.48;1680130;83;21682;-65
2021/08/28 10:08:14;;;;;;;7.28;4.97;;;;;;;20.01;60.04;99410.61;1709572;83;21025;-67
2021/08/28 10:10:40;;;;;;;4.15;3.30;;;;;;;20.10;60.23;99423.17;1708967;83;21052;-66
2021/08/28 10:13:07;;;;;;;2.92;1.32;;;;;;;20.24;59.13;99424.22;1718365;83;21543;-67
2021/08/28 10:15:36;;;;;;;2.60;1.75;;;;;;;20.19;58.85;99425.84;1711403;83;21492;-66
2021/08/28 10:18:05;;;;;;;3.37;1.40;;;;;;;20.17;59.72;99421.22;1701077;83;21523;-66
2021/08/28 10:20:31;;;;;;;4.78;1.80;;;;;;;20.24;60.05;99418.12;1711954;83;21507;-68
2021/08/28 10:23:01;;;;;;;1.37;1.10;;;;;;;20.37;59.05;99426.48;1710295;83;21037;-67
2021/08/28 10:25:30;;;;;;;1.70;1.20;;;;;;;20.49;58.02;99430.62;1710890;83;21519;-69
2021/08/28 10:27:56;;;;;;;1.92;1.32;;;;;;;20.59;57.96;99428.77;1709084;83;21080;-66
2021/08/28 10:30:24;;;;;;;3.58;3.12;;;;;;;20.71;58.36;99438.47;1710178;83;21033;-66
2021/08/28 10:32:52;;;;;;;3.33;2.37;;;;;;;20.84;57.51;99436.73;1693341;83;21064;-67
2021/08/28 10:35:20;;;;;;;3.10;2.77;;;;;;;20.92;57.07;99423.94;1711457;83;21068;-67
2021/08/28 10:37:47;;;;;;;14.68;13.15;;;;;;;21.01;56.91;99424.60;1706247;83;21115;-68
2021/08/28 10:40:18;;;;;;;22.17;20.05;;;;;;;21.10;56.13;99431.41;1712183;83;21021;-67
2021/08/28 10:42:44;;;;;;;28.87;25.77;;;;;;;21.16;56.08;99421.16;1703245;83;21721;-69
2021/08/28 10:45:11;;;;;;;12.63;11.35;;;;;;;21.20;55.04;99415.73;1708926;83;21060;-69
2021/08/28 10:47:42;;;;;;;7.10;6.40;;;;;;;21.17;54.67;99421.39;1686747;83;21100;-69
2021/08/28 10:50:11;;;;;;;5.33;3.85;;;;;;;21.16;55.22;99430.84;1662593;84;21056;-70
2021/08/28 10:52:40;;;;;;;4.87;3.85;;;;;;;21.17;54.10;99426.12;1677187;85;21064;-70
2021/08/28 10:55:12;;;;;;;1.98;1.20;;;;;;;21.22;54.25;99428.66;1700520;83;21400;-69
2021/08/28 10:57:38;;;;;;;1.98;1.40;;;;;;;21.31;55.23;99421.81;1677998;84;21108;-68
2021/08/28 11:00:14;;;;;;;5.90;3.33;;;;;;;21.45;54.34;99432.50;1711594;83;21548;-69
2021/08/28 11:02:59;;;;;;;4.22;2.75;;;;;;;21.55;53.13;99431.19;1695755;83;21096;-66
2021/08/28 11:05:29;;;;;;;1.72;1.00;;;;;;;21.62;53.47;99433.59;1689047;83;21020;-67
2021/08/28 11:07:58;;;;;;;3.37;1.50;;;;;;;21.67;53.56;99432.55;1717901;83;21619;-63
2021/08/28 11:10:27;;;;;;;4.20;1.75;;;;;;;21.69;52.60;99435.75;1692338;84;21077;-66
2021/08/28 11:13:03;;;;;;;3.40;2.00;;;;;;;21.73;52.55;99439.44;1687487;84;21607;-66
2021/08/28 11:15:39;;;;;;;6.37;3.60;;;;;;;21.77;52.43;99431.46;1692677;84;21084;-67
2021/08/28 11:18:36;;;;;;;7.65;3.87;;;;;;;21.80;52.46;99441.02;1694551;84;21079;-67
2021/08/28 11:21:09;;;;;;;5.37;3.87;;;;;;;21.84;52.01;99433.04;1718351;83;21029;-67
2021/08/28 11:23:40;;;;;;;7.47;3.92;;;;;;;21.79;51.97;99441.59;1700053;83;21045;-67
2021/08/28 11:26:07;;;;;;;7.53;4.37;;;;;;;21.65;51.98;99443.16;1722063;83;21109;-67
2021/08/28 11:28:42;;;;;;;8.75;6.15;;;;;;;21.58;52.34;99430.48;1724018;83;21464;-67
2021/08/28 11:31:09;;;;;;;6.70;3.10;;;;;;;21.58;52.58;99434.64;1716155;83;21038;-67
2021/08/28 11:33:36;;;;;;;3.90;2.30;;;;;;;21.61;52.90;99430.59;1694299;84;21025;-67
2021/08/28 11:36:20;;;;;;;4.20;2.55;;;;;;;21.60;52.34;99422.07;1717970;83;21560;-67
2021/08/28 11:38:52;;;;;;;9.35;6.12;;;;;;;21.66;52.05;99437.27;1692543;83;20978;-68
2021/08/28 11:41:23;;;;;;;3.50;1.80;;;;;;;21.70;52.12;99434.61;1697933;84;21569;-68
2021/08/28 11:43:50;;;;;;;2.83;2.20;;;;;;;21.72;51.01;99428.93;1692082;84;20985;-67
2021/08/28 11:46:28;;;;;;;2.50;1.40;;;;;;;21.65;51.44;99428.73;1713258;83;21048;-67
2021/08/28 11:48:56;;;;;;;3.67;1.50;;;;;;;21.65;51.75;99423.77;1694399;84;21453;-67
2021/08/28 11:51:25;;;;;;;4.47;2.20;;;;;;;21.64;51.51;99424.37;1695454;84;21126;-66
2021/08/28 11:53:54;;;;;;;2.40;1.32;;;;;;;21.64;51.46;99426.33;1711968;83;21446;-67